createdAt,value
2023-04-08T00:02:59.032Z,10.43
2023-04-08T00:08:00.853Z,9.55
2023-04-08T00:13:02.644Z,10.23
2023-04-08T00:18:04.324Z,12.43
2023-04-08T00:23:06.300Z,11.48
2023-04-08T00:28:07.980Z,11.45
2023-04-08T00:33:10.070Z,13.18
2023-04-08T00:38:13.577Z,14.45
2023-04-08T00:43:16.623Z,14.00
2023-04-08T00:48:18.281Z,15.07
2023-04-08T00:53:20.250Z,15.10
2023-04-08T00:58:21.902Z,14.07
2023-04-08T01:03:27.514Z,14.32
2023-04-08T01:08:31.375Z,14.02
2023-04-08T01:13:35.938Z,13.60
2023-04-08T01:18:38.819Z,15.93
2023-04-08T01:23:53.018Z,15.30
2023-04-08T01:28:57.853Z,13.47
2023-04-08T01:34:01.268Z,14.05
2023-04-08T01:39:03.449Z,13.93
2023-04-08T01:44:05.458Z,14.00
2023-04-08T01:49:07.487Z,12.25
2023-04-08T01:54:10.607Z,11.40
2023-04-08T01:59:14.538Z,11.03
2023-04-08T02:04:16.637Z,11.43
2023-04-08T02:09:20.244Z,10.30
2023-04-08T02:14:22.970Z,11.77
2023-04-08T02:19:36.514Z,10.10
2023-04-08T02:24:39.016Z,10.45
2023-04-08T02:29:41.490Z,10.40
2023-04-08T02:34:43.729Z,9.02
2023-04-08T02:39:45.539Z,8.13
2023-04-08T02:44:47.949Z,7.72
2023-04-08T02:49:53.232Z,7.68
2023-04-08T02:54:54.866Z,8.55
2023-04-08T02:59:57.090Z,6.80
2023-04-08T03:04:58.996Z,6.18
2023-04-08T03:10:00.816Z,6.63
2023-04-08T03:15:03.527Z,6.82
2023-04-08T03:20:06.218Z,6.47
2023-04-08T03:25:08.336Z,6.50
2023-04-08T03:30:10.357Z,6.80
2023-04-08T03:35:12.141Z,7.15
2023-04-08T03:40:13.779Z,6.38
2023-04-08T03:45:15.425Z,6.80
2023-04-08T03:50:17.106Z,6.88
2023-04-08T03:55:18.712Z,5.85
2023-04-08T04:00:20.332Z,6.50
2023-04-08T04:05:22.283Z,6.53
2023-04-08T04:10:24.196Z,6.20
2023-04-08T04:15:25.907Z,5.45
2023-04-08T04:20:29.189Z,5.60
2023-04-08T04:25:30.870Z,5.18
2023-04-08T04:30:32.536Z,6.35
2023-04-08T04:35:34.226Z,6.72
2023-04-08T04:40:36.224Z,4.82
2023-04-08T04:45:37.833Z,6.07
2023-04-08T04:50:39.473Z,5.22
2023-04-08T04:55:41.281Z,6.23
2023-04-08T05:00:42.880Z,6.70
2023-04-08T05:05:44.501Z,5.88
2023-04-08T05:10:46.423Z,6.10
2023-04-08T05:15:48.341Z,5.50
2023-04-08T05:20:49.956Z,5.27
2023-04-08T05:25:51.557Z,5.43
2023-04-08T05:30:53.458Z,5.53
2023-04-08T05:35:55.111Z,4.40
2023-04-08T05:40:56.766Z,5.20
2023-04-08T05:45:58.346Z,5.70
2023-04-08T05:51:00.269Z,5.85
2023-04-08T05:56:01.886Z,7.25
2023-04-08T06:01:03.859Z,6.82
2023-04-08T06:06:11.618Z,6.60
2023-04-08T06:11:13.258Z,6.20
2023-04-08T06:16:19.584Z,6.63
2023-04-08T06:21:22.560Z,6.47
2023-04-08T06:26:24.139Z,6.68
2023-04-08T06:31:26.060Z,8.52
2023-04-08T06:36:28.380Z,7.53
2023-04-08T06:41:30.760Z,8.40
2023-04-08T06:46:38.452Z,10.88
2023-04-08T06:51:40.433Z,13.13
2023-04-08T06:56:42.008Z,11.70
2023-04-08T07:01:43.693Z,12.77
2023-04-08T07:06:45.852Z,12.88
2023-04-08T07:11:47.476Z,13.93
2023-04-08T07:16:49.165Z,14.70
2023-04-08T07:21:51.004Z,11.07
2023-04-08T07:26:52.918Z,12.97
2023-04-08T07:31:54.504Z,13.32
2023-04-08T07:36:56.248Z,10.48
2023-04-08T07:41:57.887Z,10.70
2023-04-08T07:46:59.477Z,8.65
2023-04-08T07:52:01.256Z,7.45
2023-04-08T07:57:02.942Z,7.07
2023-04-08T08:02:04.701Z,5.90
2023-04-08T08:07:06.296Z,6.43
2023-04-08T08:12:07.905Z,6.30
2023-04-08T08:17:09.551Z,6.40
2023-04-08T08:22:12.042Z,6.20
2023-04-08T08:27:13.640Z,5.30
2023-04-08T08:32:15.246Z,5.53
2023-04-08T08:37:16.892Z,5.38
2023-04-08T08:42:23.175Z,5.68
2023-04-08T08:47:25.068Z,5.60
2023-04-08T08:52:26.675Z,5.90
2023-04-08T08:57:28.345Z,6.18
2023-04-08T09:02:32.134Z,7.03
2023-04-08T09:07:40.547Z,7.72
2023-04-08T09:12:56.248Z,8.82
2023-04-08T09:17:59.052Z,7.68
2023-04-08T09:23:01.817Z,7.53
2023-04-08T09:28:03.551Z,7.68
2023-04-08T09:33:07.394Z,7.70
2023-04-08T09:38:09.159Z,7.22
2023-04-08T09:43:12.781Z,7.60
2023-04-08T09:48:18.553Z,7.70
2023-04-08T09:53:26.651Z,8.90
2023-04-08T09:58:29.578Z,8.63
2023-04-08T10:03:37.614Z,9.77
2023-04-08T10:08:39.375Z,8.25
2023-04-08T10:13:41.426Z,9.63
2023-04-08T10:18:44.223Z,9.70
2023-04-08T10:23:58.947Z,10.48
2023-04-08T10:29:18.791Z,8.18
2023-04-08T10:34:22.722Z,9.82
2023-04-08T10:39:25.436Z,9.80
2023-04-08T10:44:27.150Z,9.50
2023-04-08T10:49:33.863Z,7.82
2023-04-08T10:54:36.730Z,8.35
2023-04-08T10:59:39.858Z,7.18
2023-04-08T11:04:42.853Z,9.30
2023-04-08T11:09:44.868Z,8.85
2023-04-08T11:14:47.800Z,9.57
2023-04-08T11:19:50.461Z,11.43
2023-04-08T11:24:52.225Z,11.35
2023-04-08T11:29:56.167Z,13.00
2023-04-08T11:35:01.217Z,16.17
2023-04-08T11:40:02.862Z,13.63
2023-04-08T11:45:12.345Z,13.35
2023-04-08T11:50:23.069Z,14.15
2023-04-08T11:55:27.045Z,15.55
2023-04-08T12:00:28.725Z,15.10
2023-04-08T12:05:30.461Z,16.02
2023-04-08T12:10:32.106Z,16.05
2023-04-08T12:15:33.714Z,15.30
2023-04-08T12:20:35.416Z,15.50
2023-04-08T12:25:37.010Z,15.85
2023-04-08T12:30:38.588Z,17.20
2023-04-08T12:35:40.285Z,16.35
2023-04-08T12:40:41.947Z,16.58
2023-04-08T12:45:43.553Z,17.17
2023-04-08T12:50:45.409Z,18.10
2023-04-08T12:55:49.116Z,19.65
2023-04-08T13:00:51.334Z,17.70
2023-04-08T13:05:52.961Z,15.48
2023-04-08T13:10:55.196Z,16.52
2023-04-08T13:15:56.795Z,15.48
2023-04-08T13:20:58.591Z,16.05
2023-04-08T13:26:00.462Z,14.68
2023-04-08T13:31:02.120Z,16.17
2023-04-08T13:36:03.972Z,14.07
2023-04-08T13:41:05.656Z,12.18
2023-04-08T13:46:08.091Z,12.20
2023-04-08T13:51:10.341Z,14.38
2023-04-08T13:56:11.935Z,13.60
2023-04-08T14:01:13.548Z,14.68
2023-04-08T14:06:15.242Z,13.52
2023-04-08T14:11:16.812Z,14.18
2023-04-08T14:16:18.540Z,14.32
2023-04-08T14:21:20.289Z,12.80
2023-04-08T14:26:22.043Z,13.63
2023-04-08T14:31:23.679Z,13.02
2023-04-08T14:36:26.209Z,11.00
2023-04-08T14:41:27.807Z,11.75
2023-04-08T14:46:29.573Z,12.20
2023-04-08T14:51:31.824Z,11.65
2023-04-08T14:56:33.531Z,10.43
2023-04-08T15:01:35.820Z,11.88
2023-04-08T15:06:39.023Z,10.05
2023-04-08T15:11:40.645Z,10.63
2023-04-08T15:16:42.311Z,10.00
2023-04-08T15:21:43.953Z,11.35
2023-04-08T15:26:45.582Z,9.98
2023-04-08T15:31:47.153Z,11.48
2023-04-08T15:36:48.748Z,10.93
2023-04-08T15:41:50.365Z,15.48
2023-04-08T15:46:52.063Z,14.32
2023-04-08T15:51:53.650Z,14.90
2023-04-08T15:56:55.238Z,13.45
2023-04-08T16:01:57.126Z,13.50
2023-04-08T16:06:58.784Z,13.35
2023-04-08T16:12:00.374Z,12.65
2023-04-08T16:17:01.986Z,12.68
2023-04-08T16:22:03.679Z,12.77
2023-04-08T16:27:05.519Z,13.93
2023-04-08T16:32:07.313Z,14.75
2023-04-08T16:37:09.072Z,13.30
2023-04-08T16:42:10.988Z,14.20
2023-04-08T16:47:12.577Z,13.27
2023-04-08T16:52:14.164Z,13.05
2023-04-08T16:57:16.574Z,12.73
2023-04-08T17:02:18.513Z,15.75
2023-04-08T17:07:20.219Z,13.25
2023-04-08T17:12:21.930Z,13.50
2023-04-08T17:17:23.561Z,13.02
2023-04-08T17:22:26.133Z,12.93
2023-04-08T17:27:27.736Z,13.70
2023-04-08T17:32:29.385Z,14.90
2023-04-08T17:37:31.015Z,13.70
2023-04-08T17:42:32.629Z,13.25
2023-04-08T17:47:34.256Z,14.60
2023-04-08T17:52:36.085Z,15.13
2023-04-08T17:57:38.948Z,15.15
2023-04-08T18:02:41.808Z,14.77
2023-04-08T18:07:43.649Z,14.40
2023-04-08T18:12:45.839Z,13.20
2023-04-08T18:17:47.720Z,13.23
2023-04-08T18:22:49.394Z,14.10
2023-04-08T18:27:50.994Z,16.88
2023-04-08T18:32:52.761Z,15.15
2023-04-08T18:37:54.452Z,12.75
2023-04-08T18:42:56.244Z,15.35
2023-04-08T18:47:57.908Z,15.30
2023-04-08T18:52:59.561Z,15.98
2023-04-08T18:58:01.143Z,17.42
2023-04-08T19:03:03.529Z,17.58
2023-04-08T19:08:05.765Z,16.75
2023-04-08T19:13:07.380Z,14.73
2023-04-08T19:18:09.820Z,17.58
2023-04-08T19:23:11.496Z,16.35
2023-04-08T19:28:14.334Z,16.15
2023-04-08T19:33:15.900Z,16.13
2023-04-08T19:38:17.490Z,18.33
2023-04-08T19:43:19.158Z,18.05
2023-04-08T19:48:21.312Z,18.45
2023-04-08T19:53:23.012Z,17.17
2023-04-08T19:58:24.597Z,18.00
2023-04-08T20:03:26.458Z,18.55
2023-04-08T20:08:28.375Z,15.82
2023-04-08T20:13:29.972Z,16.83
2023-04-08T20:18:32.763Z,16.95
2023-04-08T20:23:34.346Z,16.48
2023-04-08T20:28:36.679Z,17.17
2023-04-08T20:33:43.524Z,18.40
2023-04-08T20:38:45.346Z,16.27
2023-04-08T20:43:46.946Z,17.60
2023-04-08T20:48:48.590Z,19.75
2023-04-08T20:53:50.637Z,17.23
2023-04-08T20:58:52.483Z,17.83
2023-04-08T21:03:54.718Z,17.70
2023-04-08T21:08:56.484Z,19.08
2023-04-08T21:13:58.088Z,17.42
2023-04-08T21:19:01.827Z,19.05
2023-04-08T21:24:04.565Z,17.73
2023-04-08T21:29:06.315Z,19.42
2023-04-08T21:34:08.005Z,20.13
2023-04-08T21:39:09.644Z,19.25
2023-04-08T21:44:11.230Z,18.20
2023-04-08T21:49:13.764Z,18.02
2023-04-08T21:54:15.520Z,19.73
2023-04-08T21:59:17.179Z,18.92
2023-04-08T22:04:19.740Z,17.58
2023-04-08T22:09:21.678Z,19.90
2023-04-08T22:14:23.577Z,20.42
2023-04-08T22:19:25.363Z,19.45
2023-04-08T22:24:27.677Z,19.53
2023-04-08T22:29:29.701Z,19.95
2023-04-08T22:34:31.319Z,18.80
2023-04-08T22:39:32.925Z,20.95
2023-04-08T22:44:34.557Z,20.03
2023-04-08T22:49:36.396Z,21.97
2023-04-08T22:54:37.969Z,23.52
2023-04-08T22:59:39.743Z,24.05
2023-04-08T23:04:41.315Z,22.20
2023-04-08T23:09:42.946Z,24.52
2023-04-08T23:14:44.522Z,22.37
2023-04-08T23:19:46.165Z,20.40
2023-04-08T23:24:48.336Z,20.63
2023-04-08T23:29:49.928Z,20.23
2023-04-08T23:34:51.494Z,19.27
2023-04-08T23:39:54.466Z,19.60
2023-04-08T23:44:56.072Z,18.53
2023-04-08T23:49:57.725Z,18.03
2023-04-08T23:54:59.342Z,18.97
